Fascination — C6FM9 — position and weather

sailwx.info

Track history (hours):
 
Tides and Currents Weather Stations Pressure Air Temp Water Temp Dewpoint Dewpoint Depression Visibility Wind Speed Wind Dir Waves Ship Positions

Fascination

Operator: Carnival Cruise Lines

Last reported at 2015-Jul-31 02:31 UTC. Time now 2015-Jul-31 02:58 UTC.
Position N 26°45' W 079°19'.

Type: Ship. MMSI: 309682000.

Date/timePositionNaut miles runAvg speedWind from/ knotsBaromVisibWave heightAir tempDewpointWater temp
2015-Jul-31 02:31N 26°45' W 079°19'27 8.2
2015-Jul-30 23:14N 26°24' W 079°00'9 0.8
2015-Jul-30 11:30N 26°24' W 078°50'1514.8
2015-Jul-30 10:31N 26°15' W 078°37'34 1.0
2015-Jul-29 01:32N 26°31' W 079°11'1414.2
2015-Jul-29 00:33N 26°43' W 079°19'1413.2
2015-Jul-28 23:32N 26°55' W 079°27'1010.5
2015-Jul-28 22:33N 27°03' W 079°33'11 7.8
2015-Jul-28 21:10N 27°13' W 079°39'5 7.7
2015-Jul-28 20:33N 27°17' W 079°42'  
2015-Jul-24 14:19N 26°47' W 079°18'6 7.4
2015-Jul-24 13:30N 26°53' W 079°21'29 0.6
2015-Jul-22 14:32N 27°20' W 079°32'1713.0
2015-Jul-22 13:13N 27°04' W 079°27'1012.7
2015-Jul-22 12:26N 26°54' W 079°24'1512.4
2015-Jul-22 11:12N 26°39' W 079°20'4010.3
2015-Jul-22 07:18N 26°16' W 078°43'912.3
2015-Jul-22 06:33N 26°13' W 078°33'1312.9
2015-Jul-22 05:33N 26°11' W 078°19'1312.5
2015-Jul-22 04:31N 26°08' W 078°05'1511.7
2015-Jul-22 03:16N 26°02' W 077°50'1111.6
2015-Jul-22 02:17N 25°55' W 077°41'  
Track history (hours):
 
Tides and Currents Weather Stations Pressure Air Temp Water Temp Dewpoint Dewpoint Depression Visibility Wind Speed Wind Dir Waves Ship Positions

Fascination

Operator: Carnival Cruise Lines

Last reported at 2015-Jul-31 02:31 UTC. Time now 2015-Jul-31 02:58 UTC.
Position N 26°45' W 079°19'.

Type: Ship. MMSI: 309682000.

Date/timePositionNaut miles runAvg speedWind from/ knotsBaromVisibWave heightAir tempDewpointWater temp
2015-Jul-31 02:31N 26°45' W 079°19'27 8.2
2015-Jul-30 23:14N 26°24' W 079°00'9 0.8
2015-Jul-30 11:30N 26°24' W 078°50'1514.8
2015-Jul-30 10:31N 26°15' W 078°37'34 1.0
2015-Jul-29 01:32N 26°31' W 079°11'1414.2
2015-Jul-29 00:33N 26°43' W 079°19'1413.2
2015-Jul-28 23:32N 26°55' W 079°27'1010.5
2015-Jul-28 22:33N 27°03' W 079°33'11 7.8
2015-Jul-28 21:10N 27°13' W 079°39'5 7.7
2015-Jul-28 20:33N 27°17' W 079°42'  
2015-Jul-24 14:19N 26°47' W 079°18'6 7.4
2015-Jul-24 13:30N 26°53' W 079°21'29 0.6
2015-Jul-22 14:32N 27°20' W 079°32'1713.0
2015-Jul-22 13:13N 27°04' W 079°27'1012.7
2015-Jul-22 12:26N 26°54' W 079°24'1512.4
2015-Jul-22 11:12N 26°39' W 079°20'4010.3
2015-Jul-22 07:18N 26°16' W 078°43'912.3
2015-Jul-22 06:33N 26°13' W 078°33'1312.9
2015-Jul-22 05:33N 26°11' W 078°19'1312.5
2015-Jul-22 04:31N 26°08' W 078°05'1511.7
2015-Jul-22 03:16N 26°02' W 077°50'1111.6
2015-Jul-22 02:17N 25°55' W 077°41'  

Dump ship's entire track history